Airfield :
LOGIN :

Register | Disclaimer

   EN    FR    IT 

 










Legend :    VFR   Marginal VFR   IFR   Intensive IFR   Very Intensive IFR
Visi :
Ceiling :
>= 8 km
>= 3000ft
5 to 8 km
1000 to 3000 ft
1500m to 5 km
500 to 1000 ft
800 to 1500m
200 to 500 ft
< 800m
< 200 ft
Symbols :   Thunderstorms  Fog  Heavy snow  Heavy precipitations  Wind > 20 kt
SIGMETs :     Misc.  Thunderstorms  Icing  Turbulence  Mountain Waves  Volcanic Ashes






- Airport Elevation : 1455 ft


ETIH - Hohenfels Army Air Field

CURRENT METAR :
  • 121301Z AUTO 14003KT 9999 FEW009 BKN013 BKN018 BKN024 OVC033 05/05 A2973 RMK AO2 CIG 013V023 BKN013 V FEW SLP086 $

EXPIRED METARs :
  • 121229Z AUTO 15003KT 9999 FEW014 SCT020 BKN029 05/05 A2975 RMK AO2 CIG 029V100 BKN V SCT SLP093 $
  • 121156Z AUTO 16004KT 9999 SCT015 BKN110 06/06 A2974 RMK AO2 SLP088 70005 T00550055 10056 20027 57018 $
  • 121145Z AUTO 17004KT 9999 SCT011 BKN018 OVC110 06/06 A2974 RMK AO2 CIG 018V110 BKN V SCT SLP088 $
  • 121056Z AUTO 18003KT 9999 OVC011 05/05 A2976 RMK AO2 SLP096 T00500050 $

Expired Forecast.



MET'MAP, your aeronautical weather chart ! - Copyright ORBIFLY December 2007 - Disclaimer

ORBIFLY MET'MAP TEAM :

Programming & Development : Alexandra Zaïnal
Concept & Development : Baudouin d'Aumeries
Co-Development & Prog : Marc-Olivier Méhu
Technical & hardware support : Manuel Goepfert

Contact : metmap@orbifly.com




SOURCES & CREDITS :

   NOAA